Time;durP1;ratioP1;P1;durP2;ratioP2;P2;SDS_P1;SDS_P2;PMS_P1;PMS_P2;Temp;Humidity;BMP_temperature;BMP_pressure;BME280_temperature;BME280_humidity;BME280_pressure;Samples;Min_cycle;Max_cycle;Signal;HPM_P1;HPM_P2
2021/08/20 00:01:53;;;;;;;5.75;2.50;;;21.40;78.80;;;;;;4272488;27;20059;-66
2021/08/20 00:03:58;;;;;;;2.95;2.17;;;21.40;78.50;;;;;;4254393;27;20051;-67
2021/08/20 00:06:01;;;;;;;5.30;2.45;;;21.50;78.50;;;;;;4271572;27;20285;-66
2021/08/20 00:08:04;;;;;;;4.05;2.22;;;21.50;78.50;;;;;;4272754;27;20277;-66
2021/08/20 00:10:10;;;;;;;3.38;2.47;;;21.50;78.70;;;;;;4254340;27;20059;-66
2021/08/20 00:12:13;;;;;;;3.00;2.30;;;21.40;78.90;;;;;;4272607;27;20046;-67
2021/08/20 00:14:16;;;;;;;4.15;2.30;;;21.30;79.20;;;;;;4272180;27;20058;-66
2021/08/20 00:16:19;;;;;;;3.00;2.22;;;21.40;79.20;;;;;;4272582;27;20058;-66
2021/08/20 00:18:24;;;;;;;3.75;2.20;;;21.40;79.10;;;;;;4272591;27;20104;-67
2021/08/20 00:20:27;;;;;;;4.55;2.40;;;21.40;79.10;;;;;;4272473;27;20208;-67
2021/08/20 00:22:30;;;;;;;3.55;2.47;;;21.40;78.90;;;;;;4272429;27;20050;-67
2021/08/20 00:24:33;;;;;;;4.07;2.53;;;21.40;78.90;;;;;;4272632;27;20051;-67
2021/08/20 00:26:37;;;;;;;3.00;2.30;;;21.50;78.80;;;;;;4272473;27;20075;-67
2021/08/20 00:28:40;;;;;;;4.63;2.20;;;21.40;78.90;;;;;;4272490;27;20055;-67
2021/08/20 00:30:43;;;;;;;3.28;2.55;;;21.40;78.90;;;;;;4271945;27;20057;-67
2021/08/20 00:32:46;;;;;;;3.78;2.55;;;21.40;78.90;;;;;;4272304;27;20047;-67
2021/08/20 00:34:49;;;;;;;3.03;2.60;;;21.40;78.90;;;;;;4271981;27;20054;-67
2021/08/20 00:36:52;;;;;;;4.88;2.20;;;21.40;78.80;;;;;;4272087;27;20051;-66
2021/08/20 00:38:55;;;;;;;4.32;2.00;;;21.40;78.80;;;;;;4254093;27;20147;-66
2021/08/20 00:40:58;;;;;;;3.08;2.30;;;21.40;78.60;;;;;;4272419;27;20335;-66
2021/08/20 00:43:03;;;;;;;4.70;2.60;;;21.50;78.60;;;;;;4272136;27;20392;-66
2021/08/20 00:45:06;;;;;;;;;;;21.50;78.70;;;;;;4272838;27;20231;-66
2021/08/20 00:47:09;;;;;;;4.07;2.38;;;21.50;78.50;;;;;;4272493;27;19977;-66
2021/08/20 00:49:12;;;;;;;4.35;2.33;;;21.50;78.50;;;;;;4254005;27;20055;-66
2021/08/20 00:51:19;;;;;;;3.55;2.20;;;21.40;78.50;;;;;;4272298;27;20050;-66
2021/08/20 00:53:22;;;;;;;2.20;2.00;;;21.40;78.70;;;;;;4272056;27;20051;-67
2021/08/20 00:55:26;;;;;;;5.28;2.53;;;21.40;78.50;;;;;;4253550;27;20341;-66
2021/08/20 00:57:29;;;;;;;4.35;2.40;;;21.40;78.60;;;;;;4255102;27;20240;-66
2021/08/20 00:59:34;;;;;;;4.28;2.30;;;21.40;78.50;;;;;;4255350;27;20272;-66
2021/08/20 01:01:37;;;;;;;4.32;2.78;;;21.40;78.50;;;;;;4255299;27;20093;-66
2021/08/20 01:03:40;;;;;;;3.40;2.53;;;21.40;78.50;;;;;;4254859;27;20270;-67
2021/08/20 01:05:43;;;;;;;2.88;2.08;;;21.40;78.60;;;;;;4254969;27;20058;-67
2021/08/20 01:07:46;;;;;;;3.55;2.17;;;21.30;78.80;;;;;;4255090;27;20047;-66
2021/08/20 01:09:49;;;;;;;8.73;2.55;;;21.40;78.60;;;;;;4255104;27;20059;-68
2021/08/20 01:11:52;;;;;;;2.17;1.95;;;21.40;78.40;;;;;;4255223;27;20051;-67
2021/08/20 01:13:55;;;;;;;4.82;2.40;;;21.30;78.50;;;;;;4255111;27;20246;-66
2021/08/20 01:16:00;;;;;;;3.75;2.42;;;21.30;78.60;;;;;;4255471;27;20047;-67
2021/08/20 01:18:03;;;;;;;8.38;2.65;;;21.30;78.60;;;;;;4258116;27;20347;-66
2021/08/20 01:20:09;;;;;;;4.55;2.33;;;21.30;78.80;;;;;;4258367;27;20051;-67
2021/08/20 01:22:14;;;;;;;3.35;2.38;;;21.30;79.00;;;;;;4257978;27;20354;-66
2021/08/20 01:24:17;;;;;;;2.85;2.25;;;21.30;78.60;;;;;;4256745;27;20491;-67
2021/08/20 01:26:22;;;;;;;4.47;2.30;;;21.30;78.60;;;;;;4258173;27;20051;-66
2021/08/20 01:28:26;;;;;;;4.97;2.55;;;21.40;78.40;;;;;;4258097;27;20072;-67
2021/08/20 01:30:31;;;;;;;5.00;2.03;;;21.50;78.30;;;;;;4257967;27;20058;-67
2021/08/20 01:32:34;;;;;;;5.45;2.60;;;21.40;78.20;;;;;;4258044;27;20050;-66
2021/08/20 01:34:37;;;;;;;2.58;2.10;;;21.50;78.40;;;;;;4256606;27;20516;-66
2021/08/20 01:36:40;;;;;;;3.45;2.13;;;21.40;78.40;;;;;;4258034;27;20051;-67
2021/08/20 01:38:47;;;;;;;3.70;2.67;;;21.40;78.50;;;;;;4257800;27;20054;-67
2021/08/20 01:40:51;;;;;;;2.72;2.10;;;21.40;78.60;;;;;;4257330;27;20104;-66
2021/08/20 01:42:56;;;;;;;4.70;2.85;;;21.40;78.60;;;;;;4257667;27;20074;-67
2021/08/20 01:44:59;;;;;;;;;;;21.40;78.60;;;;;;4258247;27;20232;-67
2021/08/20 01:47:02;;;;;;;2.78;2.15;;;21.40;78.60;;;;;;4257972;27;20203;-66
2021/08/20 01:49:07;;;;;;;3.85;2.47;;;21.40;78.50;;;;;;4257739;27;20061;-66
2021/08/20 01:51:12;;;;;;;;;;;21.50;78.40;;;;;;4258414;27;20100;-67
2021/08/20 01:53:15;;;;;;;6.68;3.15;;;21.50;78.40;;;;;;4257767;27;19936;-67
2021/08/20 01:55:18;;;;;;;5.60;2.20;;;21.50;78.50;;;;;;4270217;27;20099;-66
2021/08/20 01:57:21;;;;;;;5.20;2.30;;;21.50;78.60;;;;;;4274334;27;20288;-66
2021/08/20 01:59:26;;;;;;;4.15;2.60;;;21.50;78.50;;;;;;4274656;27;20051;-66
2021/08/20 02:01:30;;;;;;;7.60;2.55;;;21.50;78.50;;;;;;4274349;27;20050;-67
2021/08/20 02:03:33;;;;;;;;;;;21.50;78.40;;;;;;4275059;27;20055;-66
2021/08/20 02:05:36;;;;;;;3.55;2.13;;;21.50;78.40;;;;;;4274828;27;19914;-66
2021/08/20 02:07:40;;;;;;;2.60;2.40;;;21.50;78.60;;;;;;4274778;27;20051;-66
2021/08/20 02:09:47;;;;;;;6.47;2.53;;;21.50;78.50;;;;;;4256355;27;20103;-66
2021/08/20 02:11:50;;;;;;;2.47;2.20;;;21.50;78.30;;;;;;4256172;27;20055;-66
2021/08/20 02:13:53;;;;;;;5.10;2.70;;;21.50;78.50;;;;;;4274138;27;20058;-66
2021/08/20 02:15:58;;;;;;;2.95;2.40;;;21.50;78.60;;;;;;4274367;27;20050;-66
2021/08/20 02:18:02;;;;;;;5.85;2.67;;;21.50;78.50;;;;;;4274196;27;20047;-66
2021/08/20 02:20:07;;;;;;;7.13;2.60;;;21.50;78.60;;;;;;4274359;27;20243;-66
2021/08/20 02:22:10;;;;;;;7.95;2.75;;;21.40;78.80;;;;;;4274561;27;20261;-66
2021/08/20 02:24:13;;;;;;;3.92;2.90;;;21.50;78.80;;;;;;4274178;27;20326;-66
2021/08/20 02:26:16;;;;;;;10.50;3.17;;;21.50;78.90;;;;;;4274167;27;20051;-66
2021/08/20 02:28:19;;;;;;;3.83;2.67;;;21.40;78.90;;;;;;4255044;27;20055;-67
2021/08/20 02:30:22;;;;;;;4.47;2.80;;;21.40;78.90;;;;;;4273998;27;20059;-66
2021/08/20 02:32:26;;;;;;;4.65;2.50;;;21.40;79.10;;;;;;4273720;27;20050;-67
2021/08/20 02:34:29;;;;;;;4.05;2.25;;;21.40;79.00;;;;;;4274007;27;20132;-67
2021/08/20 02:36:32;;;;;;;4.53;2.65;;;21.50;78.90;;;;;;4255683;27;20051;-66
2021/08/20 02:38:35;;;;;;;3.55;2.55;;;21.40;78.80;;;;;;4273825;27;20403;-67
2021/08/20 02:40:38;;;;;;;6.45;2.90;;;21.50;78.80;;;;;;4273782;27;20051;-67
2021/08/20 02:42:41;;;;;;;3.88;2.67;;;21.40;78.80;;;;;;4273962;27;20108;-66
2021/08/20 02:44:44;;;;;;;4.18;2.70;;;21.50;78.80;;;;;;4273941;27;20050;-66
2021/08/20 02:46:47;;;;;;;5.55;3.13;;;21.50;78.90;;;;;;4273942;27;20050;-67
2021/08/20 02:48:51;;;;;;;7.18;3.05;;;21.50;78.80;;;;;;4273759;27;20235;-67
2021/08/20 02:50:55;;;;;;;3.65;2.75;;;21.50;78.70;;;;;;4273735;27;20058;-66
2021/08/20 02:52:58;;;;;;;5.28;2.42;;;21.50;78.90;;;;;;4273572;27;20050;-66
2021/08/20 02:55:01;;;;;;;3.67;2.03;;;21.50;78.90;;;;;;4273497;27;20272;-66
2021/08/20 02:57:04;;;;;;;3.40;2.65;;;21.50;78.90;;;;;;4273492;27;20059;-66
2021/08/20 02:59:07;;;;;;;3.17;2.60;;;21.50;79.10;;;;;;4273869;27;20054;-66
2021/08/20 03:01:10;;;;;;;5.10;2.53;;;21.50;78.90;;;;;;4273551;27;20276;-66
2021/08/20 03:03:13;;;;;;;4.97;2.53;;;21.50;79.20;;;;;;4273690;27;20091;-66
2021/08/20 03:05:18;;;;;;;5.72;2.30;;;21.50;79.10;;;;;;4255508;27;20055;-67
2021/08/20 03:07:21;;;;;;;4.72;2.60;;;21.60;78.90;;;;;;4273702;27;20116;-66
2021/08/20 03:09:24;;;;;;;4.65;2.78;;;21.50;79.00;;;;;;4273335;27;20059;-67
2021/08/20 03:11:27;;;;;;;4.97;2.80;;;21.60;79.00;;;;;;4273267;27;20054;-67
2021/08/20 03:13:30;;;;;;;5.35;3.00;;;21.50;78.90;;;;;;4255189;27;20047;-66
2021/08/20 03:15:34;;;;;;;4.90;2.60;;;21.60;79.00;;;;;;4273330;27;20258;-66
2021/08/20 03:17:37;;;;;;;4.63;2.53;;;21.60;78.90;;;;;;4273354;27;20115;-67
2021/08/20 03:19:40;;;;;;;4.22;2.58;;;21.60;79.00;;;;;;4273324;27;20095;-67
2021/08/20 03:21:45;;;;;;;4.90;3.05;;;21.60;79.10;;;;;;4273173;27;20050;-66
2021/08/20 03:23:48;;;;;;;7.80;3.17;;;21.60;79.00;;;;;;4272930;27;20284;-66
2021/08/20 03:25:51;;;;;;;3.65;2.70;;;21.60;79.00;;;;;;4272505;27;20091;-66
2021/08/20 03:27:53;;;;;;;5.38;2.45;;;21.60;78.90;;;;;;4273313;27;20051;-66
2021/08/20 03:29:56;;;;;;;4.82;2.65;;;21.60;78.90;;;;;;4272979;27;20062;-66
2021/08/20 03:31:59;;;;;;;3.63;2.53;;;21.60;79.00;;;;;;4273287;27;20099;-66
2021/08/20 03:34:02;;;;;;;3.83;2.33;;;21.60;78.90;;;;;;4273087;27;20050;-66
2021/08/20 03:36:05;;;;;;;4.18;2.40;;;21.60;79.00;;;;;;4273034;27;20057;-66
2021/08/20 03:38:10;;;;;;;7.50;2.80;;;21.60;79.00;;;;;;4272925;27;20115;-66
2021/08/20 03:40:13;;;;;;;3.78;2.33;;;21.70;79.10;;;;;;4272986;27;20103;-66
2021/08/20 03:42:16;;;;;;;5.20;2.70;;;21.60;79.00;;;;;;4272901;27;20271;-67
2021/08/20 03:44:19;;;;;;;6.25;2.70;;;21.70;79.10;;;;;;4272778;27;20063;-67
2021/08/20 03:46:22;;;;;;;7.03;2.85;;;21.60;79.20;;;;;;4273308;27;20050;-66
2021/08/20 03:48:25;;;;;;;3.70;2.40;;;21.60;79.10;;;;;;4273054;27;20051;-67
2021/08/20 03:50:28;;;;;;;7.40;2.47;;;21.60;79.30;;;;;;4272739;27;20099;-66
2021/08/20 03:52:31;;;;;;;6.43;3.00;;;21.60;79.20;;;;;;4273013;27;20375;-66
2021/08/20 03:54:35;;;;;;;4.28;2.58;;;21.60;79.10;;;;;;4272662;27;20342;-67
2021/08/20 03:56:38;;;;;;;3.17;2.35;;;21.60;79.10;;;;;;4272634;27;20091;-66
2021/08/20 03:58:41;;;;;;;3.88;2.55;;;21.60;79.00;;;;;;4272756;27;20050;-66
2021/08/20 04:00:51;;;;;;;4.38;2.35;;;21.70;79.10;;;;;;4272669;27;20066;-66
2021/08/20 04:02:54;;;;;;;4.22;2.58;;;21.70;79.10;;;;;;4272594;27;20059;-67
2021/08/20 04:04:59;;;;;;;4.17;2.23;;;21.60;79.10;;;;;;4272751;27;20327;-67
2021/08/20 04:07:03;;;;;;;3.33;2.28;;;21.70;79.30;;;;;;4272240;27;20421;-66
2021/08/20 04:09:06;;;;;;;6.28;2.70;;;21.70;79.30;;;;;;4272312;27;20334;-66
2021/08/20 04:11:11;;;;;;;4.18;2.30;;;21.70;79.30;;;;;;4272240;27;20099;-66
2021/08/20 04:13:14;;;;;;;3.72;2.47;;;21.70;79.30;;;;;;4272803;27;20046;-66
2021/08/20 04:15:17;;;;;;;4.22;2.70;;;21.70;79.40;;;;;;4272418;27;20051;-67
2021/08/20 04:17:20;;;;;;;2.85;2.33;;;21.70;79.40;;;;;;4254282;27;20055;-66
2021/08/20 04:19:23;;;;;;;3.65;2.55;;;21.70;79.30;;;;;;4272360;27;20109;-66
2021/08/20 04:21:26;;;;;;;5.78;2.15;;;21.70;79.40;;;;;;4272443;27;20055;-67
2021/08/20 04:23:29;;;;;;;4.60;2.80;;;21.70;79.30;;;;;;4272350;27;20047;-67
2021/08/20 04:25:33;;;;;;;3.97;2.95;;;21.60;79.20;;;;;;4272421;27;20057;-66
2021/08/20 04:27:37;;;;;;;4.40;2.53;;;21.70;79.40;;;;;;4272611;27;20051;-66
2021/08/20 04:29:40;;;;;;;4.82;2.80;;;21.70;79.60;;;;;;4272463;27;20050;-66
2021/08/20 04:31:43;;;;;;;3.83;2.60;;;21.60;79.50;;;;;;4272339;27;20055;-66
2021/08/20 04:33:46;;;;;;;6.30;2.72;;;21.60;79.50;;;;;;4254381;27;20100;-66
2021/08/20 04:35:49;;;;;;;4.05;2.60;;;21.60;79.60;;;;;;4272368;27;20407;-67
2021/08/20 04:37:52;;;;;;;6.43;2.35;;;21.60;79.60;;;;;;4272460;27;20167;-66
2021/08/20 04:39:55;;;;;;;5.80;2.88;;;21.70;79.60;;;;;;4272379;27;20087;-67
2021/08/20 04:41:58;;;;;;;6.35;3.10;;;21.60;79.80;;;;;;4272111;27;20095;-67
2021/08/20 04:44:03;;;;;;;3.50;2.47;;;21.70;79.70;;;;;;4272045;27;20092;-66
2021/08/20 04:46:06;;;;;;;5.78;2.78;;;21.50;80.00;;;;;;4272309;27;20047;-66
2021/08/20 04:48:09;;;;;;;5.18;2.83;;;21.60;80.00;;;;;;4272274;27;20050;-67
2021/08/20 04:50:12;;;;;;;5.40;2.60;;;21.40;80.00;;;;;;4272149;27;20092;-66
2021/08/20 04:52:15;;;;;;;3.97;2.42;;;21.40;80.40;;;;;;4256582;27;20055;-66
2021/08/20 04:54:18;;;;;;;4.07;2.55;;;21.40;80.50;;;;;;4275451;27;20050;-66
2021/08/20 04:56:21;;;;;;;5.53;2.55;;;21.40;80.30;;;;;;4275630;27;20051;-66
2021/08/20 04:58:25;;;;;;;7.00;2.72;;;21.50;80.30;;;;;;4275510;27;20070;-67
2021/08/20 05:00:29;;;;;;;7.40;2.58;;;21.50;80.20;;;;;;4275552;27;20054;-67
2021/08/20 05:02:34;;;;;;;4.25;2.65;;;21.40;80.10;;;;;;4275749;27;20335;-66
2021/08/20 05:04:38;;;;;;;5.22;2.90;;;21.50;80.70;;;;;;4275370;27;20055;-66
2021/08/20 05:06:41;;;;;;;7.00;2.90;;;21.50;79.80;;;;;;4275876;27;20051;-66
2021/08/20 05:08:44;;;;;;;5.40;2.63;;;21.60;80.00;;;;;;4275482;27;20050;-67
2021/08/20 05:10:47;;;;;;;5.10;2.80;;;21.60;80.00;;;;;;4275418;27;20242;-67
2021/08/20 05:12:50;;;;;;;6.30;2.40;;;21.60;80.00;;;;;;4275124;27;20078;-66
2021/08/20 05:14:53;;;;;;;6.10;2.85;;;21.60;79.90;;;;;;4274421;27;20250;-66
2021/08/20 05:16:58;;;;;;;3.28;2.42;;;21.70;80.00;;;;;;4275110;27;20273;-66
2021/08/20 05:19:00;;;;;;;4.18;2.65;;;21.70;80.10;;;;;;4274993;27;20054;-67
2021/08/20 05:21:03;;;;;;;7.22;2.90;;;21.70;80.00;;;;;;4274989;27;20342;-67
2021/08/20 05:23:06;;;;;;;3.40;2.50;;;21.70;80.20;;;;;;4256424;27;20074;-66
2021/08/20 05:25:10;;;;;;;7.30;2.50;;;21.70;80.10;;;;;;4275266;27;20055;-67
2021/08/20 05:27:13;;;;;;;5.25;2.60;;;21.80;80.10;;;;;;4275015;27;20054;-66
2021/08/20 05:29:16;;;;;;;4.10;2.53;;;21.70;80.00;;;;;;4275484;27;20331;-67
2021/08/20 05:31:19;;;;;;;4.60;2.70;;;21.80;80.10;;;;;;4275042;27;20095;-66
2021/08/20 05:33:23;;;;;;;4.60;2.53;;;21.70;80.10;;;;;;4275382;27;20099;-67
2021/08/20 05:35:26;;;;;;;3.55;2.58;;;21.80;80.20;;;;;;4274981;27;20050;-67
2021/08/20 05:37:29;;;;;;;3.20;2.70;;;21.70;80.10;;;;;;4275012;27;20176;-67
2021/08/20 05:39:32;;;;;;;5.75;2.88;;;21.70;80.20;;;;;;4274701;27;20047;-66
2021/08/20 05:41:35;;;;;;;5.40;3.15;;;21.80;80.20;;;;;;4274755;27;20054;-67
2021/08/20 05:43:38;;;;;;;5.05;2.50;;;21.80;80.40;;;;;;4274803;27;20050;-67
2021/08/20 05:45:41;;;;;;;6.55;3.22;;;21.80;80.20;;;;;;4274472;27;20415;-66
2021/08/20 05:47:44;;;;;;;9.90;3.08;;;21.80;81.50;;;;;;4274895;27;20050;-66
2021/08/20 05:49:48;;;;;;;8.15;3.33;;;21.70;80.90;;;;;;4274835;27;20387;-66
2021/08/20 05:51:51;;;;;;;5.95;3.15;;;21.70;80.70;;;;;;4274515;27;20330;-67
2021/08/20 05:53:54;;;;;;;7.97;3.67;;;21.70;80.60;;;;;;4274636;27;20051;-67
2021/08/20 05:55:57;;;;;;;15.82;2.95;;;21.80;80.50;;;;;;4274394;27;20055;-67
2021/08/20 05:58:00;;;;;;;6.28;2.97;;;21.80;80.60;;;;;;4274457;27;20158;-66
2021/08/20 06:00:04;;;;;;;7.03;3.42;;;21.90;80.70;;;;;;4274610;27;20051;-67
2021/08/20 06:02:07;;;;;;;6.03;2.85;;;21.90;80.70;;;;;;4274231;27;20059;-67
2021/08/20 06:04:10;;;;;;;6.68;3.22;;;21.90;80.80;;;;;;4255827;27;20514;-66
2021/08/20 06:06:15;;;;;;;7.35;2.67;;;21.90;80.80;;;;;;4274668;27;20432;-67
2021/08/20 06:08:18;;;;;;;6.65;3.03;;;21.90;80.60;;;;;;4274253;27;20050;-66
2021/08/20 06:10:22;;;;;;;7.78;3.00;;;22.00;80.50;;;;;;4274519;27;20050;-67
2021/08/20 06:12:25;;;;;;;9.75;3.00;;;22.00;80.60;;;;;;4274653;27;20055;-67
2021/08/20 06:14:28;;;;;;;8.38;2.60;;;22.00;81.10;;;;;;4274539;27;20380;-67
2021/08/20 06:16:31;;;;;;;5.45;2.40;;;22.00;80.40;;;;;;4255965;27;20051;-67
2021/08/20 06:18:34;;;;;;;3.83;2.53;;;22.10;80.60;;;;;;4274444;27;20103;-67
2021/08/20 06:20:37;;;;;;;4.25;2.38;;;22.10;80.80;;;;;;4274197;27;20059;-67
2021/08/20 06:22:44;;;;;;;5.43;2.92;;;22.10;80.70;;;;;;4273976;27;20080;-66
2021/08/20 06:24:47;;;;;;;5.15;2.22;;;22.10;80.70;;;;;;4274418;27;20050;-67
2021/08/20 06:26:50;;;;;;;5.35;2.67;;;22.10;80.70;;;;;;4274229;27;20264;-67
2021/08/20 06:28:53;;;;;;;4.28;2.30;;;22.10;80.80;;;;;;4274066;27;20092;-66
2021/08/20 06:31:02;;;;;;;6.47;2.65;;;22.20;80.80;;;;;;4274077;27;20074;-67
2021/08/20 06:33:05;;;;;;;3.40;2.35;;;22.20;81.00;;;;;;4274150;27;20331;-67
2021/08/20 06:35:08;;;;;;;5.07;2.60;;;22.20;81.00;;;;;;4273993;27;20051;-66
2021/08/20 06:37:11;;;;;;;4.43;2.40;;;22.20;81.10;;;;;;4274315;27;20558;-67
2021/08/20 06:39:16;;;;;;;4.47;2.67;;;22.20;81.10;;;;;;4273983;27;20054;-67
2021/08/20 06:41:19;;;;;;;3.40;2.13;;;22.20;81.00;;;;;;4273802;27;20076;-68
2021/08/20 06:43:22;;;;;;;13.43;2.67;;;22.20;81.00;;;;;;4255703;27;20051;-66
2021/08/20 06:45:25;;;;;;;48.33;4.18;;;22.30;81.20;;;;;;4273809;27;20387;-67
2021/08/20 06:47:28;;;;;;;17.98;3.17;;;22.30;81.40;;;;;;4273920;27;20051;-66
2021/08/20 06:49:31;;;;;;;27.45;3.95;;;22.30;81.10;;;;;;4273906;27;20234;-67
2021/08/20 06:51:34;;;;;;;12.90;3.20;;;22.30;81.20;;;;;;4273531;27;20107;-67
2021/08/20 06:53:36;;;;;;;14.88;3.40;;;22.30;80.80;;;;;;4273948;27;20347;-67
2021/08/20 06:55:41;;;;;;;12.57;3.17;;;22.30;80.50;;;;;;4273318;27;20054;-68
2021/08/20 06:57:44;;;;;;;8.80;3.13;;;22.40;80.50;;;;;;4255487;27;20055;-68
2021/08/20 06:59:47;;;;;;;7.35;2.67;;;22.40;80.50;;;;;;4273637;27;20386;-67
2021/08/20 07:01:50;;;;;;;10.20;2.58;;;22.40;80.70;;;;;;4273608;27;20119;-67
2021/08/20 07:03:54;;;;;;;6.70;2.83;;;22.40;80.80;;;;;;4273406;27;20058;-67
2021/08/20 07:05:57;;;;;;;11.68;2.92;;;22.40;80.70;;;;;;4273773;27;20115;-67
2021/08/20 07:08:00;;;;;;;13.98;3.10;;;22.50;80.70;;;;;;4273351;27;20050;-67
2021/08/20 07:10:06;;;;;;;11.02;3.15;;;22.50;80.90;;;;;;4273395;27;20054;-67
2021/08/20 07:12:11;;;;;;;10.90;3.25;;;22.40;80.60;;;;;;4255415;27;20331;-66
2021/08/20 07:14:13;;;;;;;6.18;3.08;;;22.30;80.70;;;;;;4273174;27;20091;-67
2021/08/20 07:16:17;;;;;;;4.20;2.70;;;22.30;80.90;;;;;;4273617;27;20050;-66
2021/08/20 07:18:20;;;;;;;8.10;3.00;;;22.40;80.80;;;;;;4273226;27;20104;-67
2021/08/20 07:20:23;;;;;;;12.98;2.80;;;22.40;80.80;;;;;;4273450;27;20288;-66
2021/08/20 07:22:25;;;;;;;12.40;2.83;;;22.40;80.70;;;;;;4273383;27;20095;-66
2021/08/20 07:24:28;;;;;;;8.43;2.58;;;22.40;80.60;;;;;;4255349;27;20362;-66
2021/08/20 07:26:31;;;;;;;8.52;2.75;;;22.50;80.50;;;;;;4273395;27;20051;-66
2021/08/20 07:28:40;;;;;;;13.10;3.03;;;22.50;80.10;;;;;;4273460;27;20100;-66
2021/08/20 07:30:43;;;;;;;16.65;3.35;;;22.60;80.30;;;;;;4273360;27;20050;-66
2021/08/20 07:32:46;;;;;;;7.07;2.90;;;22.60;80.50;;;;;;4272702;27;20042;-66
2021/08/20 07:34:49;;;;;;;12.05;3.65;;;22.60;80.30;;;;;;4273198;27;20440;-67
2021/08/20 07:36:52;;;;;;;13.15;3.42;;;22.60;80.20;;;;;;4272977;27;20075;-66
2021/08/20 07:38:55;;;;;;;9.55;3.58;;;22.70;80.40;;;;;;4273320;27;20339;-66
2021/08/20 07:40:58;;;;;;;12.35;3.45;;;22.70;80.60;;;;;;4273190;27;20054;-66
2021/08/20 07:43:01;;;;;;;6.13;2.90;;;22.70;80.50;;;;;;4272755;27;20334;-66
2021/08/20 07:45:07;;;;;;;11.32;3.13;;;22.70;80.50;;;;;;4272576;27;20280;-67
2021/08/20 07:47:10;;;;;;;12.32;3.45;;;22.80;80.30;;;;;;4273091;27;20051;-67
2021/08/20 07:49:13;;;;;;;12.35;3.17;;;22.80;80.20;;;;;;4272827;27;20050;-66
2021/08/20 07:51:16;;;;;;;8.68;3.15;;;22.90;80.50;;;;;;4272815;27;20269;-66
2021/08/20 07:53:19;;;;;;;13.60;3.78;;;22.90;80.10;;;;;;4272755;27;20058;-67
2021/08/20 07:55:24;;;;;;;12.48;3.42;;;22.90;80.20;;;;;;4272541;27;20047;-67
2021/08/20 07:57:27;;;;;;;16.83;3.70;;;22.90;80.40;;;;;;4272943;27;20084;-66
2021/08/20 07:59:30;;;;;;;11.10;3.53;;;23.00;80.50;;;;;;4272514;27;20107;-66
2021/08/20 08:01:35;;;;;;;13.35;3.00;;;22.90;80.50;;;;;;4272724;27;20073;-66
2021/08/20 08:03:38;;;;;;;11.27;3.25;;;22.90;80.40;;;;;;4273014;27;20062;-66
2021/08/20 08:05:42;;;;;;;11.25;3.95;;;23.00;80.50;;;;;;4254575;27;20051;-67
2021/08/20 08:07:45;;;;;;;11.27;3.88;;;23.00;79.90;;;;;;4272707;27;20051;-66
2021/08/20 08:09:48;;;;;;;11.70;4.40;;;23.00;80.30;;;;;;4272540;27;20050;-67
2021/08/20 08:11:51;;;;;;;11.05;4.57;;;23.00;80.10;;;;;;4272406;27;20087;-67
2021/08/20 08:13:53;;;;;;;17.80;4.65;;;23.10;80.00;;;;;;4272443;27;20075;-67
2021/08/20 08:15:56;;;;;;;15.52;4.82;;;23.10;80.00;;;;;;4272745;27;20091;-66
2021/08/20 08:18:01;;;;;;;13.07;4.65;;;23.10;79.90;;;;;;4272626;27;20376;-66
2021/08/20 08:20:06;;;;;;;15.60;4.88;;;23.10;79.80;;;;;;4272567;27;20059;-66
2021/08/20 08:22:09;;;;;;;9.75;4.32;;;23.10;79.90;;;;;;4272150;27;20752;-66
2021/08/20 08:24:12;;;;;;;16.05;4.93;;;23.10;80.00;;;;;;4272541;27;20072;-66
2021/08/20 08:26:15;;;;;;;11.85;4.15;;;23.10;79.50;;;;;;4271803;27;20400;-67
2021/08/20 08:28:20;;;;;;;18.35;4.80;;;23.10;79.90;;;;;;4272067;27;20047;-67
2021/08/20 08:30:26;;;;;;;13.15;5.00;;;23.20;80.00;;;;;;4272318;27;20054;-66
2021/08/20 08:32:29;;;;;;;14.73;4.78;;;23.20;79.50;;;;;;4272551;27;20051;-67
2021/08/20 08:34:33;;;;;;;16.88;4.80;;;23.30;79.30;;;;;;4272260;27;20050;-66
2021/08/20 08:36:36;;;;;;;22.95;5.05;;;23.30;79.80;;;;;;4272582;27;20241;-66
2021/08/20 08:38:40;;;;;;;14.25;4.72;;;23.30;79.50;;;;;;4272317;27;20058;-66
2021/08/20 08:40:45;;;;;;;13.88;4.88;;;23.30;79.20;;;;;;4254334;27;20338;-67
2021/08/20 08:42:49;;;;;;;16.40;5.20;;;23.30;79.50;;;;;;4272265;27;20091;-67
2021/08/20 08:44:52;;;;;;;14.77;4.75;;;23.30;79.10;;;;;;4273232;27;20088;-66
2021/08/20 08:46:56;;;;;;;18.90;4.80;;;23.30;78.70;;;;;;4272562;27;20047;-66
2021/08/20 08:48:59;;;;;;;16.58;4.70;;;23.40;78.80;;;;;;4272468;27;20095;-66
2021/08/20 08:51:04;;;;;;;10.18;5.13;;;23.40;79.00;;;;;;4272527;27;20266;-66
2021/08/20 08:53:07;;;;;;;14.77;5.82;;;23.40;79.10;;;;;;4272148;27;20332;-66
2021/08/20 08:55:19;;;;;;;14.77;5.50;;;23.40;78.60;;;;;;4271538;27;20055;-66
2021/08/20 08:57:22;;;;;;;15.00;5.68;;;23.40;78.90;;;;;;4254007;27;20107;-66
2021/08/20 08:59:25;;;;;;;16.30;5.43;;;23.40;78.70;;;;;;4272332;27;20268;-66
2021/08/20 09:01:32;;;;;;;17.52;5.25;;;23.50;78.60;;;;;;4271894;27;20348;-67
2021/08/20 09:03:36;;;;;;;16.60;5.03;;;23.40;78.20;;;;;;4272035;27;20059;-67
2021/08/20 09:05:44;;;;;;;13.52;5.30;;;23.50;79.00;;;;;;4272155;27;20051;-66
2021/08/20 09:07:52;;;;;;;14.80;5.15;;;23.50;78.50;;;;;;4272406;27;20109;-66
2021/08/20 09:10:12;;;;;;;19.38;5.82;;;23.60;78.10;;;;;;4272212;27;20212;-66
2021/08/20 09:12:26;;;;;;;15.30;5.00;;;23.60;77.60;;;;;;4272303;27;20046;-66
2021/08/20 09:14:30;;;;;;;13.77;4.95;;;23.50;78.50;;;;;;4272293;27;20058;-66
2021/08/20 09:16:37;;;;;;;21.95;5.85;;;23.50;78.00;;;;;;4272368;27;20683;-66
2021/08/20 09:18:41;;;;;;;19.35;5.18;;;23.60;78.00;;;;;;4272082;27;20099;-66
2021/08/20 09:20:44;;;;;;;16.35;5.25;;;23.60;78.20;;;;;;4272234;27;20051;-67
2021/08/20 09:22:50;;;;;;;13.40;4.95;;;23.60;78.00;;;;;;4272167;27;20448;-66
2021/08/20 09:24:54;;;;;;;13.23;4.45;;;23.60;78.00;;;;;;4272379;27;20335;-66
2021/08/20 09:27:17;;;;;;;13.68;5.05;;;23.70;78.20;;;;;;4272017;27;20050;-66
2021/08/20 09:29:22;;;;;;;10.43;5.03;;;23.70;77.50;;;;;;4271755;27;20062;-66
2021/08/20 09:31:25;;;;;;;16.23;5.68;;;23.80;78.10;;;;;;4272186;27;20046;-66
2021/08/20 09:33:30;;;;;;;14.18;5.88;;;23.90;78.00;;;;;;4271831;27;20050;-66
2021/08/20 09:35:36;;;;;;;19.20;4.60;;;23.90;77.50;;;;;;4272041;27;20050;-67
2021/08/20 09:37:39;;;;;;;14.40;5.07;;;23.90;77.90;;;;;;4273088;27;20050;-66
2021/08/20 09:39:48;;;;;;;13.32;4.78;;;24.00;77.80;;;;;;4275154;27;20053;-67
2021/08/20 09:42:10;;;;;;;12.38;4.90;;;24.10;77.80;;;;;;4275116;27;20046;-66
2021/08/20 09:44:20;;;;;;;14.35;5.05;;;24.20;77.30;;;;;;4275026;27;20083;-66
2021/08/20 09:46:24;;;;;;;15.27;4.90;;;24.20;77.10;;;;;;4275086;27;20046;-66
2021/08/20 09:48:42;;;;;;;15.68;4.90;;;24.30;76.90;;;;;;4274940;27;20339;-66
2021/08/20 09:50:45;;;;;;;16.15;4.80;;;24.30;76.90;;;;;;4274826;27;20100;-66
2021/08/20 09:52:49;;;;;;;9.80;5.03;;;24.30;76.70;;;;;;4274941;27;20046;-66
2021/08/20 09:54:53;;;;;;;9.25;4.35;;;24.40;76.60;;;;;;4274518;27;20050;-66
2021/08/20 09:56:58;;;;;;;12.57;4.68;;;24.50;76.40;;;;;;4274929;27;20051;-66
2021/08/20 09:59:03;;;;;;;17.73;4.30;;;24.50;76.10;;;;;;4274774;27;20050;-67
2021/08/20 10:01:06;;;;;;;12.73;5.10;;;24.60;76.40;;;;;;4274977;27;20103;-67
2021/08/20 10:03:15;;;;;;;11.05;4.38;;;24.60;75.20;;;;;;4274732;27;20054;-67
2021/08/20 10:05:19;;;;;;;12.35;4.10;;;24.50;75.90;;;;;;4274917;27;20051;-67
2021/08/20 10:07:22;;;;;;;10.27;4.57;;;24.60;76.20;;;;;;4274654;27;20387;-67
2021/08/20 10:09:28;;;;;;;12.38;4.97;;;24.70;75.80;;;;;;4274393;27;20050;-67
2021/08/20 10:11:35;;;;;;;8.70;4.55;;;24.70;75.60;;;;;;4274172;27;20051;-67
2021/08/20 10:13:39;;;;;;;15.57;4.47;;;24.80;75.80;;;;;;4274613;27;20281;-67
2021/08/20 10:15:42;;;;;;;9.57;4.40;;;24.90;75.60;;;;;;4256017;27;20136;-67
2021/08/20 10:17:45;;;;;;;12.20;4.10;;;24.90;74.10;;;;;;4256242;27;20109;-67
2021/08/20 10:19:49;;;;;;;14.00;3.65;;;24.90;75.20;;;;;;4274422;27;20099;-67
2021/08/20 10:21:52;;;;;;;11.57;3.90;;;25.00;75.10;;;;;;4274647;27;20050;-67
2021/08/20 10:23:55;;;;;;;11.55;3.80;;;25.00;74.00;;;;;;4274756;27;20050;-67
2021/08/20 10:25:58;;;;;;;10.75;4.32;;;25.00;74.00;;;;;;4275521;27;20387;-67
2021/08/20 10:28:03;;;;;;;13.13;4.25;;;25.00;73.40;;;;;;4255946;27;20092;-67
2021/08/20 10:30:08;;;;;;;9.07;3.70;;;24.90;73.80;;;;;;4274169;27;20100;-67
2021/08/20 10:32:11;;;;;;;8.75;3.55;;;25.00;72.50;;;;;;4255924;27;20055;-67
2021/08/20 10:34:39;;;;;;;7.15;3.88;;;25.00;74.00;;;;;;4255919;27;20096;-67
2021/08/20 10:36:42;;;;;;;4.78;2.95;;;25.00;73.10;;;;;;4250125;27;20055;-67
2021/08/20 10:38:48;;;;;;;10.15;3.00;;;25.10;73.10;;;;;;4274195;27;20046;-67
2021/08/20 10:41:13;;;;;;;7.63;3.38;;;25.10;73.90;;;;;;4274321;27;20050;-67
2021/08/20 10:43:49;;;;;;;6.85;3.25;;;25.10;73.50;;;;;;4255971;27;20088;-67
2021/08/20 10:45:54;;;;;;;7.60;2.97;;;25.30;72.90;;;;;;4273929;27;20054;-67